Country
Station

 

Weather  for  Chattanooga, Lovell Field  -  United States    United States

  
14 °C (57 °F)
    
 
 

Current METAR for Chattanooga, Lovell Field is :

KCHA 192053Z 35010G19KT 10SM FEW055 14/M01 A3020 RMK AO2 SLP223 T01441011 58003

 

This is a report for Chattanooga, Lovell Field - United States.
 
The report was made 37 minutes ago, at 20:53 UTC .
The wind was blowing at a speed of 5.1 meters per second (11.5 miles per hour) with gusts up to 9.8 meters per second (21.9 miles per hour) from north (350°).
 
The temperature was 14 °C (57 °F), with a dew-point at -1 °C (30 °F).
The atmospheric pressure was 1023 hPa (30.20 inHg).
The relative humidity was 35.5%.
 
There were a few clouds at a height of 1676 meters (5500 feet).
 
The overall visibility was 16.1 kilometers (10.0 miles).
 

 
 
 
 

Country :   A   B   C   D   E   F   G   H   I   J   K   L   M   N   O   P   Q   R   S   T   U   V   W   Y   Z

 

Site Info  |  Disclaimer  |  Credits  |  Privacy
Contact us  |  Add to favorites
© 2013-2018 METARs - All rights reserved